sensor_id;sensor_type;location;lat;lon;timestamp;temperature;humidity
16929;DHT22;8581;47.334;11.190;2024-02-26T00:02:26;1.40;99.90
16929;DHT22;8581;47.334;11.190;2024-02-26T00:04:58;1.20;99.90
16929;DHT22;8581;47.334;11.190;2024-02-26T00:07:29;1.20;99.90
16929;DHT22;8581;47.334;11.190;2024-02-26T00:10:01;1.10;99.90
16929;DHT22;8581;47.334;11.190;2024-02-26T00:12:33;1.10;99.90
16929;DHT22;8581;47.334;11.190;2024-02-26T00:15:05;1.10;99.90
16929;DHT22;8581;47.334;11.190;2024-02-26T00:17:37;1.20;99.90
16929;DHT22;8581;47.334;11.190;2024-02-26T00:20:10;1.10;99.90
16929;DHT22;8581;47.334;11.190;2024-02-26T00:22:41;1.00;99.90
16929;DHT22;8581;47.334;11.190;2024-02-26T00:25:13;1.00;99.90
16929;DHT22;8581;47.334;11.190;2024-02-26T00:27:45;0.90;99.90
16929;DHT22;8581;47.334;11.190;2024-02-26T00:30:16;0.80;99.90
16929;DHT22;8581;47.334;11.190;2024-02-26T00:32:48;0.90;99.90
16929;DHT22;8581;47.334;11.190;2024-02-26T00:35:20;0.80;99.90
16929;DHT22;8581;47.334;11.190;2024-02-26T00:37:51;0.90;99.90
16929;DHT22;8581;47.334;11.190;2024-02-26T00:40:23;0.90;99.90
16929;DHT22;8581;47.334;11.190;2024-02-26T00:42:54;0.80;99.90
16929;DHT22;8581;47.334;11.190;2024-02-26T00:45:27;0.70;99.90
16929;DHT22;8581;47.334;11.190;2024-02-26T00:47:58;0.80;99.90
16929;DHT22;8581;47.334;11.190;2024-02-26T00:50:30;0.80;99.90
16929;DHT22;8581;47.334;11.190;2024-02-26T00:53:01;0.90;99.90
16929;DHT22;8581;47.334;11.190;2024-02-26T00:55:33;1.00;99.90
16929;DHT22;8581;47.334;11.190;2024-02-26T00:58:04;1.10;99.90
16929;DHT22;8581;47.334;11.190;2024-02-26T01:00:36;1.10;99.90
16929;DHT22;8581;47.334;11.190;2024-02-26T01:03:08;1.20;99.90
16929;DHT22;8581;47.334;11.190;2024-02-26T01:05:39;1.20;99.90
16929;DHT22;8581;47.334;11.190;2024-02-26T01:08:11;1.30;99.90
16929;DHT22;8581;47.334;11.190;2024-02-26T01:10:43;1.30;99.90
16929;DHT22;8581;47.334;11.190;2024-02-26T01:13:14;1.30;99.90
16929;DHT22;8581;47.334;11.190;2024-02-26T01:15:46;1.20;99.90
16929;DHT22;8581;47.334;11.190;2024-02-26T01:18:18;1.30;99.90
16929;DHT22;8581;47.334;11.190;2024-02-26T01:20:49;1.30;99.90
16929;DHT22;8581;47.334;11.190;2024-02-26T01:23:21;1.20;99.90
16929;DHT22;8581;47.334;11.190;2024-02-26T01:25:52;1.30;99.90
16929;DHT22;8581;47.334;11.190;2024-02-26T01:28:24;1.30;99.90
16929;DHT22;8581;47.334;11.190;2024-02-26T01:30:56;1.40;99.90
16929;DHT22;8581;47.334;11.190;2024-02-26T01:33:27;1.40;99.90
16929;DHT22;8581;47.334;11.190;2024-02-26T01:35:59;1.20;99.90
16929;DHT22;8581;47.334;11.190;2024-02-26T01:38:31;1.10;99.90
16929;DHT22;8581;47.334;11.190;2024-02-26T01:41:02;1.10;99.90
16929;DHT22;8581;47.334;11.190;2024-02-26T01:43:34;1.10;99.90
16929;DHT22;8581;47.334;11.190;2024-02-26T01:46:06;1.00;99.90
16929;DHT22;8581;47.334;11.190;2024-02-26T01:48:37;1.00;99.90
16929;DHT22;8581;47.334;11.190;2024-02-26T01:51:09;0.90;99.90
16929;DHT22;8581;47.334;11.190;2024-02-26T01:53:41;0.80;99.90
16929;DHT22;8581;47.334;11.190;2024-02-26T01:56:12;0.80;99.90
16929;DHT22;8581;47.334;11.190;2024-02-26T01:58:44;0.80;99.90
16929;DHT22;8581;47.334;11.190;2024-02-26T02:01:16;0.90;99.90
16929;DHT22;8581;47.334;11.190;2024-02-26T02:03:47;0.80;99.90
16929;DHT22;8581;47.334;11.190;2024-02-26T02:06:19;0.70;99.90
16929;DHT22;8581;47.334;11.190;2024-02-26T02:08:51;0.70;99.90
16929;DHT22;8581;47.334;11.190;2024-02-26T02:11:22;0.70;99.90
16929;DHT22;8581;47.334;11.190;2024-02-26T02:13:54;0.80;99.90
16929;DHT22;8581;47.334;11.190;2024-02-26T02:16:25;0.90;99.90
16929;DHT22;8581;47.334;11.190;2024-02-26T02:18:58;1.00;99.90
16929;DHT22;8581;47.334;11.190;2024-02-26T02:21:29;1.00;99.90
16929;DHT22;8581;47.334;11.190;2024-02-26T02:24:00;1.00;99.90
16929;DHT22;8581;47.334;11.190;2024-02-26T02:26:32;1.00;99.90
16929;DHT22;8581;47.334;11.190;2024-02-26T02:29:04;1.00;99.90
16929;DHT22;8581;47.334;11.190;2024-02-26T02:31:35;0.90;99.90
16929;DHT22;8581;47.334;11.190;2024-02-26T02:34:08;0.90;99.90
16929;DHT22;8581;47.334;11.190;2024-02-26T02:36:49;0.90;99.90
16929;DHT22;8581;47.334;11.190;2024-02-26T02:39:20;0.90;99.90
16929;DHT22;8581;47.334;11.190;2024-02-26T02:41:52;0.90;99.90
16929;DHT22;8581;47.334;11.190;2024-02-26T02:44:24;1.00;99.90
16929;DHT22;8581;47.334;11.190;2024-02-26T02:46:55;1.00;99.90
16929;DHT22;8581;47.334;11.190;2024-02-26T02:49:27;1.00;99.90
16929;DHT22;8581;47.334;11.190;2024-02-26T02:51:58;1.00;99.90
16929;DHT22;8581;47.334;11.190;2024-02-26T02:54:30;1.00;99.90
16929;DHT22;8581;47.334;11.190;2024-02-26T02:57:02;1.20;99.90
16929;DHT22;8581;47.334;11.190;2024-02-26T02:59:34;1.30;99.90
16929;DHT22;8581;47.334;11.190;2024-02-26T03:02:05;1.30;99.90
16929;DHT22;8581;47.334;11.190;2024-02-26T03:04:37;1.40;99.90
16929;DHT22;8581;47.334;11.190;2024-02-26T03:07:09;1.40;99.90
16929;DHT22;8581;47.334;11.190;2024-02-26T03:09:40;1.30;99.90
16929;DHT22;8581;47.334;11.190;2024-02-26T03:12:12;1.30;99.90
16929;DHT22;8581;47.334;11.190;2024-02-26T03:14:44;1.30;99.90
16929;DHT22;8581;47.334;11.190;2024-02-26T03:17:15;1.40;99.90
16929;DHT22;8581;47.334;11.190;2024-02-26T03:19:47;1.40;99.90
16929;DHT22;8581;47.334;11.190;2024-02-26T03:22:19;1.40;99.90
16929;DHT22;8581;47.334;11.190;2024-02-26T03:24:50;1.30;99.90
16929;DHT22;8581;47.334;11.190;2024-02-26T03:27:22;1.30;99.90
16929;DHT22;8581;47.334;11.190;2024-02-26T03:29:53;1.20;99.90
16929;DHT22;8581;47.334;11.190;2024-02-26T03:32:25;1.20;99.90
16929;DHT22;8581;47.334;11.190;2024-02-26T03:34:57;1.30;99.90
16929;DHT22;8581;47.334;11.190;2024-02-26T03:37:28;1.20;99.90
16929;DHT22;8581;47.334;11.190;2024-02-26T03:40:00;1.20;99.90
16929;DHT22;8581;47.334;11.190;2024-02-26T03:42:32;1.20;99.90
16929;DHT22;8581;47.334;11.190;2024-02-26T03:45:04;1.30;99.90
16929;DHT22;8581;47.334;11.190;2024-02-26T03:47:37;1.40;99.90
16929;DHT22;8581;47.334;11.190;2024-02-26T03:50:08;1.40;99.90
16929;DHT22;8581;47.334;11.190;2024-02-26T03:52:40;1.50;99.90
16929;DHT22;8581;47.334;11.190;2024-02-26T03:55:11;1.30;99.90
16929;DHT22;8581;47.334;11.190;2024-02-26T03:57:43;1.20;99.90
16929;DHT22;8581;47.334;11.190;2024-02-26T04:00:15;1.30;99.90
16929;DHT22;8581;47.334;11.190;2024-02-26T04:02:47;1.30;99.90
16929;DHT22;8581;47.334;11.190;2024-02-26T04:05:18;1.30;99.90
16929;DHT22;8581;47.334;11.190;2024-02-26T04:07:50;1.30;99.90
16929;DHT22;8581;47.334;11.190;2024-02-26T04:10:22;1.30;99.90
16929;DHT22;8581;47.334;11.190;2024-02-26T04:12:53;1.30;99.90
16929;DHT22;8581;47.334;11.190;2024-02-26T04:15:25;1.30;99.90
16929;DHT22;8581;47.334;11.190;2024-02-26T04:17:56;1.30;99.90
16929;DHT22;8581;47.334;11.190;2024-02-26T04:20:28;1.30;99.90
16929;DHT22;8581;47.334;11.190;2024-02-26T04:23:00;1.30;99.90
16929;DHT22;8581;47.334;11.190;2024-02-26T04:25:31;1.30;99.90
16929;DHT22;8581;47.334;11.190;2024-02-26T04:28:04;1.30;99.90
16929;DHT22;8581;47.334;11.190;2024-02-26T04:30:36;1.30;99.90
16929;DHT22;8581;47.334;11.190;2024-02-26T04:33:07;1.30;99.90
16929;DHT22;8581;47.334;11.190;2024-02-26T04:35:39;1.20;99.90
16929;DHT22;8581;47.334;11.190;2024-02-26T04:38:10;1.20;99.90
16929;DHT22;8581;47.334;11.190;2024-02-26T04:40:42;1.30;99.90
16929;DHT22;8581;47.334;11.190;2024-02-26T04:43:13;1.10;99.90
16929;DHT22;8581;47.334;11.190;2024-02-26T04:45:45;1.00;99.90
16929;DHT22;8581;47.334;11.190;2024-02-26T04:48:17;0.90;99.90
16929;DHT22;8581;47.334;11.190;2024-02-26T04:50:48;0.90;99.90
16929;DHT22;8581;47.334;11.190;2024-02-26T04:53:20;0.80;99.90
16929;DHT22;8581;47.334;11.190;2024-02-26T04:55:51;0.80;99.90
16929;DHT22;8581;47.334;11.190;2024-02-26T04:58:23;0.80;99.90
16929;DHT22;8581;47.334;11.190;2024-02-26T05:00:55;0.70;99.90
16929;DHT22;8581;47.334;11.190;2024-02-26T05:03:26;0.70;99.90
16929;DHT22;8581;47.334;11.190;2024-02-26T05:05:58;0.90;99.90
16929;DHT22;8581;47.334;11.190;2024-02-26T05:08:30;1.00;99.90
16929;DHT22;8581;47.334;11.190;2024-02-26T05:11:02;1.00;99.90
16929;DHT22;8581;47.334;11.190;2024-02-26T05:13:34;0.90;99.90
16929;DHT22;8581;47.334;11.190;2024-02-26T05:16:06;0.90;99.90
16929;DHT22;8581;47.334;11.190;2024-02-26T05:18:37;1.00;99.90
16929;DHT22;8581;47.334;11.190;2024-02-26T05:21:09;1.10;99.90
16929;DHT22;8581;47.334;11.190;2024-02-26T05:23:40;1.30;99.90
16929;DHT22;8581;47.334;11.190;2024-02-26T05:26:18;1.30;99.90
16929;DHT22;8581;47.334;11.190;2024-02-26T05:28:44;1.30;99.90
16929;DHT22;8581;47.334;11.190;2024-02-26T05:31:16;1.20;99.90
16929;DHT22;8581;47.334;11.190;2024-02-26T05:33:47;1.20;99.90
16929;DHT22;8581;47.334;11.190;2024-02-26T05:36:20;1.10;99.90
16929;DHT22;8581;47.334;11.190;2024-02-26T05:38:52;1.20;99.90
16929;DHT22;8581;47.334;11.190;2024-02-26T05:41:23;1.20;99.90
16929;DHT22;8581;47.334;11.190;2024-02-26T05:43:55;1.30;99.90
16929;DHT22;8581;47.334;11.190;2024-02-26T05:46:27;1.10;99.90
16929;DHT22;8581;47.334;11.190;2024-02-26T05:48:58;1.00;99.90
16929;DHT22;8581;47.334;11.190;2024-02-26T05:51:30;0.90;99.90
16929;DHT22;8581;47.334;11.190;2024-02-26T05:54:02;0.90;99.90
16929;DHT22;8581;47.334;11.190;2024-02-26T05:56:33;0.80;99.90
16929;DHT22;8581;47.334;11.190;2024-02-26T05:59:05;0.90;99.90
16929;DHT22;8581;47.334;11.190;2024-02-26T06:01:36;0.90;99.90
16929;DHT22;8581;47.334;11.190;2024-02-26T06:04:08;0.80;99.90
16929;DHT22;8581;47.334;11.190;2024-02-26T06:06:40;0.80;99.90
16929;DHT22;8581;47.334;11.190;2024-02-26T06:09:11;0.90;99.90
16929;DHT22;8581;47.334;11.190;2024-02-26T06:11:43;0.80;99.90
16929;DHT22;8581;47.334;11.190;2024-02-26T06:14:14;0.80;99.90
16929;DHT22;8581;47.334;11.190;2024-02-26T06:16:46;0.60;99.90
16929;DHT22;8581;47.334;11.190;2024-02-26T06:19:18;0.70;99.90
16929;DHT22;8581;47.334;11.190;2024-02-26T06:21:49;0.70;99.90
16929;DHT22;8581;47.334;11.190;2024-02-26T06:24:21;0.70;99.90
16929;DHT22;8581;47.334;11.190;2024-02-26T06:26:53;0.60;99.90
16929;DHT22;8581;47.334;11.190;2024-02-26T06:29:24;0.70;99.90
16929;DHT22;8581;47.334;11.190;2024-02-26T06:31:56;0.70;99.90
16929;DHT22;8581;47.334;11.190;2024-02-26T06:34:28;1.20;99.90
16929;DHT22;8581;47.334;11.190;2024-02-26T06:36:59;1.20;99.90
16929;DHT22;8581;47.334;11.190;2024-02-26T06:39:31;1.30;99.90
16929;DHT22;8581;47.334;11.190;2024-02-26T06:42:02;1.30;99.90
16929;DHT22;8581;47.334;11.190;2024-02-26T06:44:34;1.40;99.90
16929;DHT22;8581;47.334;11.190;2024-02-26T06:47:06;1.60;99.90
16929;DHT22;8581;47.334;11.190;2024-02-26T06:49:37;1.80;99.90
16929;DHT22;8581;47.334;11.190;2024-02-26T06:52:09;1.90;99.90
16929;DHT22;8581;47.334;11.190;2024-02-26T06:54:41;2.10;99.90
16929;DHT22;8581;47.334;11.190;2024-02-26T06:57:12;2.00;99.90
16929;DHT22;8581;47.334;11.190;2024-02-26T06:59:44;1.90;99.90
16929;DHT22;8581;47.334;11.190;2024-02-26T07:02:16;1.80;99.90
16929;DHT22;8581;47.334;11.190;2024-02-26T07:04:47;2.00;99.90
16929;DHT22;8581;47.334;11.190;2024-02-26T07:07:19;2.00;99.90
16929;DHT22;8581;47.334;11.190;2024-02-26T07:09:50;2.20;99.90
16929;DHT22;8581;47.334;11.190;2024-02-26T07:12:22;2.20;99.90
16929;DHT22;8581;47.334;11.190;2024-02-26T07:14:54;2.30;99.90
16929;DHT22;8581;47.334;11.190;2024-02-26T07:17:25;2.40;99.90
16929;DHT22;8581;47.334;11.190;2024-02-26T07:19:57;2.80;99.90
16929;DHT22;8581;47.334;11.190;2024-02-26T07:22:29;2.60;99.90
16929;DHT22;8581;47.334;11.190;2024-02-26T07:25:00;2.60;99.90
16929;DHT22;8581;47.334;11.190;2024-02-26T07:27:32;2.70;99.90
16929;DHT22;8581;47.334;11.190;2024-02-26T07:30:04;3.00;99.90
16929;DHT22;8581;47.334;11.190;2024-02-26T07:32:36;3.20;99.90
16929;DHT22;8581;47.334;11.190;2024-02-26T07:35:08;3.20;99.90
16929;DHT22;8581;47.334;11.190;2024-02-26T07:37:40;3.10;99.90
16929;DHT22;8581;47.334;11.190;2024-02-26T07:40:12;3.30;99.90
16929;DHT22;8581;47.334;11.190;2024-02-26T07:42:44;3.20;99.90
16929;DHT22;8581;47.334;11.190;2024-02-26T07:45:15;3.20;99.90
16929;DHT22;8581;47.334;11.190;2024-02-26T07:47:47;3.40;99.90
16929;DHT22;8581;47.334;11.190;2024-02-26T07:50:19;3.40;99.90
16929;DHT22;8581;47.334;11.190;2024-02-26T07:52:50;3.60;99.90
16929;DHT22;8581;47.334;11.190;2024-02-26T07:55:22;3.60;99.90
16929;DHT22;8581;47.334;11.190;2024-02-26T07:57:53;3.60;99.90
16929;DHT22;8581;47.334;11.190;2024-02-26T08:00:25;3.70;99.90
16929;DHT22;8581;47.334;11.190;2024-02-26T08:02:57;3.80;99.90
16929;DHT22;8581;47.334;11.190;2024-02-26T08:05:28;4.20;99.90
16929;DHT22;8581;47.334;11.190;2024-02-26T08:08:00;4.30;99.90
16929;DHT22;8581;47.334;11.190;2024-02-26T08:10:31;4.50;99.90
16929;DHT22;8581;47.334;11.190;2024-02-26T08:13:03;4.60;99.90
16929;DHT22;8581;47.334;11.190;2024-02-26T08:15:36;4.80;99.90
16929;DHT22;8581;47.334;11.190;2024-02-26T08:18:08;4.80;99.90
16929;DHT22;8581;47.334;11.190;2024-02-26T08:20:40;5.00;99.90
16929;DHT22;8581;47.334;11.190;2024-02-26T08:23:11;5.10;99.90
16929;DHT22;8581;47.334;11.190;2024-02-26T08:25:43;4.90;99.90
16929;DHT22;8581;47.334;11.190;2024-02-26T08:28:15;5.10;99.90
16929;DHT22;8581;47.334;11.190;2024-02-26T08:30:46;5.00;99.90
16929;DHT22;8581;47.334;11.190;2024-02-26T08:33:18;5.00;99.90
16929;DHT22;8581;47.334;11.190;2024-02-26T08:35:50;5.00;99.90
16929;DHT22;8581;47.334;11.190;2024-02-26T08:38:21;5.30;99.90
16929;DHT22;8581;47.334;11.190;2024-02-26T08:40:53;5.40;99.90
16929;DHT22;8581;47.334;11.190;2024-02-26T08:43:25;5.50;99.90
16929;DHT22;8581;47.334;11.190;2024-02-26T08:45:56;5.70;99.90
16929;DHT22;8581;47.334;11.190;2024-02-26T08:48:28;5.70;99.90
16929;DHT22;8581;47.334;11.190;2024-02-26T08:50:59;5.70;99.90
16929;DHT22;8581;47.334;11.190;2024-02-26T08:53:31;5.90;99.90
16929;DHT22;8581;47.334;11.190;2024-02-26T08:56:03;6.20;99.90
16929;DHT22;8581;47.334;11.190;2024-02-26T08:58:35;6.30;99.90
16929;DHT22;8581;47.334;11.190;2024-02-26T09:01:07;6.10;99.90
16929;DHT22;8581;47.334;11.190;2024-02-26T09:03:38;6.00;99.90
16929;DHT22;8581;47.334;11.190;2024-02-26T09:06:10;6.40;99.90
16929;DHT22;8581;47.334;11.190;2024-02-26T09:08:42;6.90;99.90
16929;DHT22;8581;47.334;11.190;2024-02-26T09:11:13;6.50;99.90
16929;DHT22;8581;47.334;11.190;2024-02-26T09:13:45;6.50;99.90
16929;DHT22;8581;47.334;11.190;2024-02-26T09:16:16;6.40;99.90
16929;DHT22;8581;47.334;11.190;2024-02-26T09:18:48;6.70;99.90
16929;DHT22;8581;47.334;11.190;2024-02-26T09:21:20;6.50;99.90
16929;DHT22;8581;47.334;11.190;2024-02-26T09:23:52;6.60;99.90
16929;DHT22;8581;47.334;11.190;2024-02-26T09:26:23;6.40;99.90
16929;DHT22;8581;47.334;11.190;2024-02-26T09:28:54;7.00;99.90
16929;DHT22;8581;47.334;11.190;2024-02-26T09:31:26;7.20;99.90
16929;DHT22;8581;47.334;11.190;2024-02-26T09:33:59;7.00;99.90
16929;DHT22;8581;47.334;11.190;2024-02-26T09:36:30;7.00;99.90
16929;DHT22;8581;47.334;11.190;2024-02-26T09:39:02;7.00;99.90
16929;DHT22;8581;47.334;11.190;2024-02-26T09:41:34;7.40;99.90
16929;DHT22;8581;47.334;11.190;2024-02-26T09:44:05;7.70;99.90
16929;DHT22;8581;47.334;11.190;2024-02-26T09:46:37;7.40;99.90
16929;DHT22;8581;47.334;11.190;2024-02-26T09:49:08;7.40;99.90
16929;DHT22;8581;47.334;11.190;2024-02-26T09:51:40;7.30;99.90
16929;DHT22;8581;47.334;11.190;2024-02-26T09:54:12;7.30;99.90
16929;DHT22;8581;47.334;11.190;2024-02-26T09:56:44;7.30;99.90
16929;DHT22;8581;47.334;11.190;2024-02-26T09:59:16;7.20;99.90
16929;DHT22;8581;47.334;11.190;2024-02-26T10:01:47;7.60;99.90
16929;DHT22;8581;47.334;11.190;2024-02-26T10:04:19;7.20;99.90
16929;DHT22;8581;47.334;11.190;2024-02-26T10:06:51;7.50;99.90
16929;DHT22;8581;47.334;11.190;2024-02-26T10:09:22;7.60;99.90
16929;DHT22;8581;47.334;11.190;2024-02-26T10:11:54;7.50;99.90
16929;DHT22;8581;47.334;11.190;2024-02-26T10:14:25;7.40;99.90
16929;DHT22;8581;47.334;11.190;2024-02-26T10:16:57;7.90;99.90
16929;DHT22;8581;47.334;11.190;2024-02-26T10:19:29;8.20;99.90
16929;DHT22;8581;47.334;11.190;2024-02-26T10:22:01;8.40;99.90
16929;DHT22;8581;47.334;11.190;2024-02-26T10:24:32;8.10;99.90
16929;DHT22;8581;47.334;11.190;2024-02-26T10:27:04;8.00;99.90
16929;DHT22;8581;47.334;11.190;2024-02-26T10:29:35;8.60;99.90
16929;DHT22;8581;47.334;11.190;2024-02-26T10:32:07;8.30;99.90
16929;DHT22;8581;47.334;11.190;2024-02-26T10:34:39;8.10;99.90
16929;DHT22;8581;47.334;11.190;2024-02-26T10:37:10;8.30;99.90
16929;DHT22;8581;47.334;11.190;2024-02-26T10:39:46;8.60;99.90
16929;DHT22;8581;47.334;11.190;2024-02-26T10:42:14;9.20;99.90
16929;DHT22;8581;47.334;11.190;2024-02-26T10:44:45;9.70;99.90
16929;DHT22;8581;47.334;11.190;2024-02-26T10:47:17;10.60;99.90
16929;DHT22;8581;47.334;11.190;2024-02-26T10:49:49;10.80;99.90
16929;DHT22;8581;47.334;11.190;2024-02-26T10:52:21;10.50;99.90
16929;DHT22;8581;47.334;11.190;2024-02-26T10:54:53;10.80;99.90
16929;DHT22;8581;47.334;11.190;2024-02-26T10:57:25;10.80;99.90
16929;DHT22;8581;47.334;11.190;2024-02-26T10:59:56;10.70;99.90
16929;DHT22;8581;47.334;11.190;2024-02-26T11:02:28;11.70;99.90
16929;DHT22;8581;47.334;11.190;2024-02-26T11:05:01;12.70;99.90
16929;DHT22;8581;47.334;11.190;2024-02-26T11:07:32;11.90;99.90
16929;DHT22;8581;47.334;11.190;2024-02-26T11:10:03;11.10;99.90
16929;DHT22;8581;47.334;11.190;2024-02-26T11:12:35;11.00;99.90
16929;DHT22;8581;47.334;11.190;2024-02-26T11:15:08;10.60;99.90
16929;DHT22;8581;47.334;11.190;2024-02-26T11:17:40;10.60;99.90
16929;DHT22;8581;47.334;11.190;2024-02-26T11:20:12;10.40;99.90
16929;DHT22;8581;47.334;11.190;2024-02-26T11:22:43;10.20;99.90
16929;DHT22;8581;47.334;11.190;2024-02-26T11:25:15;9.90;99.90
16929;DHT22;8581;47.334;11.190;2024-02-26T11:27:55;9.90;99.90
16929;DHT22;8581;47.334;11.190;2024-02-26T11:30:30;9.90;99.90
16929;DHT22;8581;47.334;11.190;2024-02-26T11:33:00;10.30;99.90
16929;DHT22;8581;47.334;11.190;2024-02-26T11:35:32;10.40;99.90
16929;DHT22;8581;47.334;11.190;2024-02-26T11:38:04;10.50;99.90
16929;DHT22;8581;47.334;11.190;2024-02-26T11:40:38;11.10;99.90
16929;DHT22;8581;47.334;11.190;2024-02-26T11:43:10;11.10;99.90
16929;DHT22;8581;47.334;11.190;2024-02-26T11:45:49;10.40;99.90
16929;DHT22;8581;47.334;11.190;2024-02-26T11:48:22;10.20;99.90
16929;DHT22;8581;47.334;11.190;2024-02-26T11:50:54;10.10;99.90
16929;DHT22;8581;47.334;11.190;2024-02-26T11:53:30;10.20;99.90
16929;DHT22;8581;47.334;11.190;2024-02-26T11:58:44;9.80;99.90
16929;DHT22;8581;47.334;11.190;2024-02-26T12:03:59;8.80;99.90
16929;DHT22;8581;47.334;11.190;2024-02-26T12:06:31;8.80;99.90
16929;DHT22;8581;47.334;11.190;2024-02-26T12:09:02;9.20;99.90
16929;DHT22;8581;47.334;11.190;2024-02-26T12:11:37;9.00;99.90
16929;DHT22;8581;47.334;11.190;2024-02-26T12:14:07;9.00;99.90
16929;DHT22;8581;47.334;11.190;2024-02-26T12:16:38;9.00;99.90
16929;DHT22;8581;47.334;11.190;2024-02-26T12:19:10;8.60;99.90
16929;DHT22;8581;47.334;11.190;2024-02-26T12:21:41;8.40;99.90
16929;DHT22;8581;47.334;11.190;2024-02-26T12:24:14;8.10;99.90
16929;DHT22;8581;47.334;11.190;2024-02-26T12:26:45;8.00;99.90
16929;DHT22;8581;47.334;11.190;2024-02-26T12:29:16;7.90;99.90
16929;DHT22;8581;47.334;11.190;2024-02-26T12:31:48;7.80;99.90
16929;DHT22;8581;47.334;11.190;2024-02-26T12:34:20;7.90;99.90
16929;DHT22;8581;47.334;11.190;2024-02-26T12:36:53;8.20;99.90
16929;DHT22;8581;47.334;11.190;2024-02-26T12:39:23;7.70;99.90
16929;DHT22;8581;47.334;11.190;2024-02-26T12:41:55;8.20;99.90
16929;DHT22;8581;47.334;11.190;2024-02-26T12:44:26;8.10;99.90
16929;DHT22;8581;47.334;11.190;2024-02-26T12:47:01;8.30;99.90
16929;DHT22;8581;47.334;11.190;2024-02-26T12:49:35;8.30;99.90
16929;DHT22;8581;47.334;11.190;2024-02-26T12:52:07;8.50;99.90
16929;DHT22;8581;47.334;11.190;2024-02-26T12:54:38;8.60;99.90
16929;DHT22;8581;47.334;11.190;2024-02-26T12:57:10;8.50;99.90
16929;DHT22;8581;47.334;11.190;2024-02-26T12:59:42;8.30;99.90
16929;DHT22;8581;47.334;11.190;2024-02-26T13:02:13;8.10;99.90
16929;DHT22;8581;47.334;11.190;2024-02-26T13:04:45;8.20;99.90
16929;DHT22;8581;47.334;11.190;2024-02-26T13:07:17;8.10;99.90
16929;DHT22;8581;47.334;11.190;2024-02-26T13:09:49;7.80;99.90
16929;DHT22;8581;47.334;11.190;2024-02-26T13:12:20;8.00;99.90
16929;DHT22;8581;47.334;11.190;2024-02-26T13:15:02;7.80;99.90
16929;DHT22;8581;47.334;11.190;2024-02-26T13:17:34;7.60;99.90
16929;DHT22;8581;47.334;11.190;2024-02-26T13:20:07;7.50;99.90
16929;DHT22;8581;47.334;11.190;2024-02-26T13:22:38;7.50;99.90
16929;DHT22;8581;47.334;11.190;2024-02-26T13:25:10;7.60;99.90
16929;DHT22;8581;47.334;11.190;2024-02-26T13:27:41;7.60;99.90
16929;DHT22;8581;47.334;11.190;2024-02-26T13:30:13;7.60;99.90
16929;DHT22;8581;47.334;11.190;2024-02-26T13:32:45;7.90;99.90
16929;DHT22;8581;47.334;11.190;2024-02-26T13:35:16;7.90;99.90
16929;DHT22;8581;47.334;11.190;2024-02-26T13:37:48;8.10;99.90
16929;DHT22;8581;47.334;11.190;2024-02-26T13:40:20;7.90;99.90
16929;DHT22;8581;47.334;11.190;2024-02-26T13:42:51;7.80;99.90
16929;DHT22;8581;47.334;11.190;2024-02-26T13:45:23;7.90;99.90
16929;DHT22;8581;47.334;11.190;2024-02-26T13:47:59;7.90;99.90
16929;DHT22;8581;47.334;11.190;2024-02-26T13:50:26;7.90;99.90
16929;DHT22;8581;47.334;11.190;2024-02-26T13:52:58;8.00;99.90
16929;DHT22;8581;47.334;11.190;2024-02-26T13:55:30;8.00;99.90
16929;DHT22;8581;47.334;11.190;2024-02-26T13:58:01;7.80;99.90
16929;DHT22;8581;47.334;11.190;2024-02-26T14:00:33;7.90;99.90
16929;DHT22;8581;47.334;11.190;2024-02-26T14:03:05;7.80;99.90
16929;DHT22;8581;47.334;11.190;2024-02-26T14:05:36;8.00;99.90
16929;DHT22;8581;47.334;11.190;2024-02-26T14:08:08;7.90;99.90
16929;DHT22;8581;47.334;11.190;2024-02-26T14:10:40;8.30;99.90
16929;DHT22;8581;47.334;11.190;2024-02-26T14:13:11;8.30;99.90
16929;DHT22;8581;47.334;11.190;2024-02-26T14:15:43;8.30;99.90
16929;DHT22;8581;47.334;11.190;2024-02-26T14:18:14;8.10;99.90
16929;DHT22;8581;47.334;11.190;2024-02-26T14:20:46;7.90;99.90
16929;DHT22;8581;47.334;11.190;2024-02-26T14:23:18;7.70;99.90
16929;DHT22;8581;47.334;11.190;2024-02-26T14:25:49;7.50;99.90
16929;DHT22;8581;47.334;11.190;2024-02-26T14:28:21;7.70;99.90
16929;DHT22;8581;47.334;11.190;2024-02-26T14:30:53;8.00;99.90
16929;DHT22;8581;47.334;11.190;2024-02-26T14:33:24;8.20;99.90
16929;DHT22;8581;47.334;11.190;2024-02-26T14:35:56;8.20;99.90
16929;DHT22;8581;47.334;11.190;2024-02-26T14:38:27;8.30;99.90
16929;DHT22;8581;47.334;11.190;2024-02-26T14:40:59;8.10;99.90
16929;DHT22;8581;47.334;11.190;2024-02-26T14:43:32;8.20;99.90
16929;DHT22;8581;47.334;11.190;2024-02-26T14:46:03;8.50;99.90
16929;DHT22;8581;47.334;11.190;2024-02-26T14:48:35;8.60;99.90
16929;DHT22;8581;47.334;11.190;2024-02-26T14:51:07;8.40;99.90
16929;DHT22;8581;47.334;11.190;2024-02-26T14:53:39;8.30;99.90
16929;DHT22;8581;47.334;11.190;2024-02-26T14:56:10;8.50;99.90
16929;DHT22;8581;47.334;11.190;2024-02-26T14:58:42;8.80;99.90
16929;DHT22;8581;47.334;11.190;2024-02-26T15:01:13;9.60;99.90
16929;DHT22;8581;47.334;11.190;2024-02-26T15:03:45;9.50;99.90
16929;DHT22;8581;47.334;11.190;2024-02-26T15:06:17;9.30;99.90
16929;DHT22;8581;47.334;11.190;2024-02-26T15:08:48;9.50;99.90
16929;DHT22;8581;47.334;11.190;2024-02-26T15:11:20;10.20;99.90
16929;DHT22;8581;47.334;11.190;2024-02-26T15:13:51;10.20;99.90
16929;DHT22;8581;47.334;11.190;2024-02-26T15:16:23;10.30;99.90
16929;DHT22;8581;47.334;11.190;2024-02-26T15:18:55;10.60;99.90
16929;DHT22;8581;47.334;11.190;2024-02-26T15:21:26;10.30;99.90
16929;DHT22;8581;47.334;11.190;2024-02-26T15:23:58;10.10;99.90
16929;DHT22;8581;47.334;11.190;2024-02-26T15:26:30;10.90;99.90
16929;DHT22;8581;47.334;11.190;2024-02-26T15:29:01;11.80;99.90
16929;DHT22;8581;47.334;11.190;2024-02-26T15:31:33;12.70;99.90
16929;DHT22;8581;47.334;11.190;2024-02-26T15:34:04;13.70;99.90
16929;DHT22;8581;47.334;11.190;2024-02-26T15:36:36;13.10;99.90
16929;DHT22;8581;47.334;11.190;2024-02-26T15:39:08;12.70;99.90
16929;DHT22;8581;47.334;11.190;2024-02-26T15:41:40;12.40;99.90
16929;DHT22;8581;47.334;11.190;2024-02-26T15:44:12;12.00;99.90
16929;DHT22;8581;47.334;11.190;2024-02-26T15:46:43;11.40;99.90
16929;DHT22;8581;47.334;11.190;2024-02-26T15:49:15;11.10;99.90
16929;DHT22;8581;47.334;11.190;2024-02-26T15:51:46;10.70;99.90
16929;DHT22;8581;47.334;11.190;2024-02-26T15:54:18;11.10;99.90
16929;DHT22;8581;47.334;11.190;2024-02-26T15:56:50;10.70;99.90
16929;DHT22;8581;47.334;11.190;2024-02-26T15:59:21;10.00;99.90
16929;DHT22;8581;47.334;11.190;2024-02-26T16:01:53;9.60;99.90
16929;DHT22;8581;47.334;11.190;2024-02-26T16:04:25;9.20;99.90
16929;DHT22;8581;47.334;11.190;2024-02-26T16:06:58;9.00;99.90
16929;DHT22;8581;47.334;11.190;2024-02-26T16:09:28;8.70;99.90
16929;DHT22;8581;47.334;11.190;2024-02-26T16:12:00;8.30;99.90
16929;DHT22;8581;47.334;11.190;2024-02-26T16:14:51;8.00;99.90
16929;DHT22;8581;47.334;11.190;2024-02-26T16:17:26;8.10;99.90
16929;DHT22;8581;47.334;11.190;2024-02-26T16:19:56;7.70;99.90